createdAt,value
2018-12-12T00:01:44.518Z,1.70
2018-12-12T00:06:52.888Z,1.70
2018-12-12T00:11:59.645Z,1.80
2018-12-12T00:17:05.410Z,1.80
2018-12-12T00:22:11.321Z,1.80
2018-12-12T00:27:17.103Z,1.80
2018-12-12T00:32:22.978Z,1.80
2018-12-12T00:37:28.889Z,1.80
2018-12-12T00:42:34.890Z,1.80
2018-12-12T00:47:40.788Z,1.80
2018-12-12T00:52:47.066Z,1.80
2018-12-12T00:57:53.967Z,1.80
2018-12-12T01:02:59.772Z,1.80
2018-12-12T01:08:05.453Z,1.70
2018-12-12T01:13:11.245Z,1.70
2018-12-12T01:18:17.935Z,1.80
2018-12-12T01:23:23.746Z,1.80
2018-12-12T01:28:29.638Z,1.80
2018-12-12T01:33:35.501Z,1.80
2018-12-12T01:38:42.414Z,1.70
2018-12-12T01:43:49.061Z,1.60
2018-12-12T01:48:57.317Z,1.60
2018-12-12T01:54:10.050Z,1.60
2018-12-12T01:59:15.940Z,1.60
2018-12-12T02:04:21.731Z,1.60
2018-12-12T02:09:27.816Z,1.50
2018-12-12T02:14:34.721Z,1.50
2018-12-12T02:19:41.616Z,1.50
2018-12-12T02:24:47.515Z,1.50
2018-12-12T02:29:54.427Z,1.50
2018-12-12T02:35:00.490Z,1.40
2018-12-12T02:40:06.314Z,1.30
2018-12-12T02:45:12.192Z,1.30
2018-12-12T02:50:18.276Z,1.30
2018-12-12T02:55:24.293Z,1.20
2018-12-12T03:00:30.600Z,1.10
2018-12-12T03:05:36.408Z,1.10
2018-12-12T03:10:42.272Z,1.00
2018-12-12T03:15:48.131Z,0.90
2018-12-12T03:20:53.940Z,0.90
2018-12-12T03:25:59.863Z,0.80
2018-12-12T03:31:06.029Z,0.80
2018-12-12T03:36:11.807Z,0.80
2018-12-12T03:41:17.736Z,0.70
2018-12-12T03:46:23.534Z,0.70
2018-12-12T03:51:30.304Z,0.70
2018-12-12T03:56:37.667Z,0.60
2018-12-12T04:01:43.592Z,0.50
2018-12-12T04:06:49.483Z,0.40
2018-12-12T04:11:55.252Z,0.30
2018-12-12T04:17:03.518Z,0.20
2018-12-12T04:22:10.477Z,0.10
2018-12-12T04:27:17.406Z,0.10
2018-12-12T04:32:24.383Z,-0.10
2018-12-12T04:37:32.370Z,-0.20
2018-12-12T04:42:38.504Z,-0.20
2018-12-12T04:47:44.314Z,-0.20
2018-12-12T04:52:54.334Z,-0.20
2018-12-12T04:58:00.903Z,-0.10
2018-12-12T05:03:17.879Z,0.10
2018-12-12T05:08:24.644Z,0.20
2018-12-12T05:13:31.294Z,0.30
2018-12-12T05:18:37.283Z,0.40
2018-12-12T05:23:43.073Z,0.50
2018-12-12T05:28:49.464Z,0.50
2018-12-12T05:33:56.166Z,0.50
2018-12-12T05:39:01.951Z,0.50
2018-12-12T05:44:10.884Z,0.50
2018-12-12T05:49:17.795Z,0.50
2018-12-12T05:54:27.663Z,0.50
2018-12-12T05:59:33.584Z,0.60
2018-12-12T06:04:39.388Z,0.70
2018-12-12T06:09:46.203Z,0.70
2018-12-12T06:14:51.971Z,0.70
2018-12-12T06:19:58.088Z,0.70
2018-12-12T06:25:04.984Z,0.70
2018-12-12T06:30:11.755Z,0.60
2018-12-12T06:35:17.729Z,0.60
2018-12-12T06:40:25.320Z,0.50
2018-12-12T06:45:36.052Z,0.50
2018-12-12T06:50:41.836Z,0.50
2018-12-12T06:55:47.602Z,0.50
2018-12-12T07:00:53.518Z,0.50
2018-12-12T07:05:59.667Z,0.50
2018-12-12T07:11:05.587Z,0.60
2018-12-12T07:16:11.510Z,0.60
2018-12-12T07:21:17.789Z,0.70
2018-12-12T07:26:24.283Z,0.70
2018-12-12T07:31:30.063Z,0.80
2018-12-12T07:36:35.845Z,0.80
2018-12-12T07:41:43.006Z,0.90
2018-12-12T07:46:52.300Z,0.90
2018-12-12T07:52:01.081Z,1.00
2018-12-12T07:57:07.164Z,1.10
2018-12-12T08:02:13.959Z,1.20
2018-12-12T08:07:19.767Z,1.40
2018-12-12T08:12:25.670Z,1.40
2018-12-12T08:17:31.432Z,1.50
2018-12-12T08:22:38.332Z,1.70
2018-12-12T08:27:44.412Z,1.80
2018-12-12T08:32:50.377Z,1.90
2018-12-12T08:37:57.909Z,2.00
2018-12-12T08:43:04.892Z,2.00
2018-12-12T08:48:10.564Z,2.00
2018-12-12T08:53:16.946Z,2.00
2018-12-12T08:58:24.643Z,1.90
2018-12-12T09:03:30.435Z,2.00
2018-12-12T09:08:36.466Z,2.00
2018-12-12T09:13:42.466Z,2.00
2018-12-12T09:18:50.214Z,2.10
2018-12-12T09:23:55.997Z,2.20
2018-12-12T09:29:01.977Z,2.50
2018-12-12T09:34:10.460Z,2.90
2018-12-12T09:39:16.474Z,3.10
2018-12-12T09:44:23.542Z,3.10
2018-12-12T09:49:29.314Z,3.10
2018-12-12T09:54:37.124Z,3.00
2018-12-12T09:59:45.467Z,2.90
2018-12-12T10:04:51.248Z,2.90
2018-12-12T10:09:57.105Z,2.80
2018-12-12T10:15:03.005Z,2.90
2018-12-12T10:20:09.149Z,2.90
2018-12-12T10:25:15.040Z,3.00
2018-12-12T10:30:21.807Z,3.00
2018-12-12T10:35:28.606Z,3.20
2018-12-12T10:40:34.370Z,3.50
2018-12-12T10:45:40.155Z,4.00
2018-12-12T10:50:46.053Z,4.30
2018-12-12T10:55:51.923Z,4.70
2018-12-12T11:01:03.052Z,4.60
2018-12-12T11:06:08.918Z,4.30
2018-12-12T11:11:14.729Z,4.10
2018-12-12T11:16:21.584Z,4.00
2018-12-12T11:21:27.340Z,3.90
2018-12-12T11:26:33.295Z,3.70
2018-12-12T11:31:39.082Z,3.60
2018-12-12T11:36:44.985Z,3.50
2018-12-12T11:41:51.412Z,3.50
2018-12-12T11:46:58.031Z,3.40
2018-12-12T11:52:05.531Z,3.40
2018-12-12T11:57:11.749Z,3.30
2018-12-12T12:02:17.578Z,3.30
2018-12-12T12:07:23.496Z,3.30
2018-12-12T12:12:31.049Z,3.30
2018-12-12T12:17:36.815Z,3.40
2018-12-12T12:22:42.703Z,3.50
2018-12-12T12:27:48.548Z,3.50
2018-12-12T12:32:55.092Z,3.50
2018-12-12T12:38:00.873Z,3.40
2018-12-12T12:43:07.823Z,3.40
2018-12-12T12:48:13.608Z,3.20
2018-12-12T12:53:19.495Z,3.10
2018-12-12T12:58:27.317Z,3.10
2018-12-12T13:03:34.447Z,3.10
2018-12-12T13:08:42.242Z,3.10
2018-12-12T13:13:48.310Z,3.10
2018-12-12T13:18:54.418Z,3.10
2018-12-12T13:24:00.477Z,3.00
2018-12-12T13:29:06.430Z,3.10
2018-12-12T13:34:16.412Z,3.00
2018-12-12T13:39:21.947Z,3.00
2018-12-12T13:44:30.942Z,2.90
2018-12-12T13:49:36.758Z,3.00
2018-12-12T13:54:42.502Z,3.00
2018-12-12T13:59:48.448Z,2.90
2018-12-12T14:04:54.544Z,2.90
2018-12-12T14:10:00.351Z,2.90
2018-12-12T14:15:06.662Z,2.90
2018-12-12T14:20:14.900Z,2.90
2018-12-12T14:25:21.875Z,2.90
2018-12-12T14:30:28.959Z,2.90
2018-12-12T14:35:36.015Z,2.90
2018-12-12T14:40:43.420Z,2.80
2018-12-12T14:45:49.197Z,2.80
2018-12-12T14:50:56.318Z,2.80
2018-12-12T14:56:03.299Z,2.80
2018-12-12T15:01:09.221Z,2.80
2018-12-12T15:06:15.444Z,2.80
2018-12-12T15:11:21.247Z,2.70
2018-12-12T15:16:28.655Z,2.70
2018-12-12T15:21:34.606Z,2.70
2018-12-12T15:26:40.494Z,2.70
2018-12-12T15:31:46.297Z,2.70
2018-12-12T15:36:53.160Z,2.70
2018-12-12T15:41:58.978Z,2.70
2018-12-12T15:47:06.018Z,2.70
2018-12-12T15:52:12.841Z,2.70
2018-12-12T15:57:18.694Z,2.70
2018-12-12T16:02:24.532Z,2.70
2018-12-12T16:07:30.343Z,2.60
2018-12-12T16:12:37.614Z,2.60
2018-12-12T16:17:44.990Z,2.60
2018-12-12T16:22:50.998Z,2.50
2018-12-12T16:27:56.993Z,2.40
2018-12-12T16:33:03.813Z,2.30
2018-12-12T16:38:10.778Z,2.30
2018-12-12T16:43:18.913Z,2.20
2018-12-12T16:48:26.851Z,2.20
2018-12-12T16:53:32.725Z,2.20
2018-12-12T16:58:38.542Z,2.20
2018-12-12T17:03:44.482Z,2.20
2018-12-12T17:08:50.618Z,2.20
2018-12-12T17:13:57.037Z,2.20
2018-12-12T17:19:05.170Z,2.20
2018-12-12T17:24:12.289Z,2.10
2018-12-12T17:29:18.088Z,2.10
2018-12-12T17:34:24.102Z,2.10
2018-12-12T17:39:30.104Z,2.10
2018-12-12T17:44:36.037Z,2.10
2018-12-12T17:49:41.840Z,2.10
2018-12-12T17:54:47.749Z,2.10
2018-12-12T17:59:53.548Z,2.10
2018-12-12T18:05:03.095Z,2.10
2018-12-12T18:10:10.965Z,2.10
2018-12-12T18:15:16.910Z,2.00
2018-12-12T18:20:25.760Z,2.00
2018-12-12T18:25:31.585Z,2.00
2018-12-12T18:30:38.798Z,2.00
2018-12-12T18:35:47.479Z,1.90
2018-12-12T18:40:53.451Z,1.90
2018-12-12T18:46:01.327Z,1.90
2018-12-12T18:51:07.228Z,1.90
2018-12-12T18:56:15.257Z,1.90
2018-12-12T19:01:21.187Z,1.90
2018-12-12T19:06:27.422Z,1.90
2018-12-12T19:11:33.309Z,1.90
2018-12-12T19:16:40.281Z,2.00
2018-12-12T19:21:48.547Z,1.90
2018-12-12T19:26:55.472Z,2.00
2018-12-12T19:32:02.223Z,2.00
2018-12-12T19:37:09.110Z,1.90
2018-12-12T19:42:16.035Z,2.00
2018-12-12T19:47:23.167Z,2.00
2018-12-12T19:52:29.723Z,2.00
2018-12-12T19:57:37.877Z,1.90
2018-12-12T20:02:43.775Z,1.90
2018-12-12T20:07:49.715Z,1.90
2018-12-12T20:12:56.813Z,1.90
2018-12-12T20:18:03.747Z,1.90
2018-12-12T20:23:09.993Z,1.90
2018-12-12T20:28:16.931Z,1.90
2018-12-12T20:33:25.518Z,1.90
2018-12-12T20:38:31.462Z,1.90
2018-12-12T20:43:37.404Z,1.90
2018-12-12T20:48:43.261Z,1.90
2018-12-12T20:53:49.209Z,1.80
2018-12-12T20:58:56.082Z,1.80
2018-12-12T21:04:02.983Z,1.80
2018-12-12T21:09:09.094Z,1.80
2018-12-12T21:14:15.267Z,1.80
2018-12-12T21:19:22.199Z,1.80
2018-12-12T21:24:29.255Z,1.80
2018-12-12T21:29:35.071Z,1.80
2018-12-12T21:34:40.879Z,1.90
2018-12-12T21:39:46.771Z,1.80
2018-12-12T21:44:52.577Z,1.80
2018-12-12T21:49:58.360Z,1.80
2018-12-12T21:55:05.568Z,1.80
2018-12-12T22:00:11.839Z,1.80
2018-12-12T22:05:17.872Z,1.90
2018-12-12T22:10:23.744Z,1.90
2018-12-12T22:15:29.541Z,1.90
2018-12-12T22:20:35.444Z,1.90
2018-12-12T22:25:41.437Z,1.90
2018-12-12T22:30:47.268Z,1.90
2018-12-12T22:35:53.182Z,1.90
2018-12-12T22:40:59.073Z,1.80
2018-12-12T22:46:05.446Z,1.80
2018-12-12T22:51:13.808Z,1.80
2018-12-12T22:56:19.701Z,1.80
2018-12-12T23:01:25.738Z,1.80
2018-12-12T23:06:32.341Z,1.80
2018-12-12T23:11:38.168Z,1.80
2018-12-12T23:16:44.990Z,1.80
2018-12-12T23:21:50.781Z,1.80
2018-12-12T23:26:56.564Z,1.80
2018-12-12T23:32:03.364Z,1.80
2018-12-12T23:37:10.119Z,1.70
2018-12-12T23:42:15.966Z,1.80
2018-12-12T23:47:21.709Z,1.70
2018-12-12T23:52:27.563Z,1.70
2018-12-12T23:57:34.480Z,1.70
